createdAt,value
2022-07-26T08:30:15.234Z,793.13
2022-07-26T08:32:17.634Z,714.38
2022-07-26T08:33:17.621Z,697.50
2022-07-26T08:34:17.614Z,703.13
2022-07-26T08:35:19.846Z,691.88
2022-07-26T08:45:58.460Z,748.13
2022-07-26T08:46:58.468Z,793.13
2022-07-26T08:48:18.616Z,765.00
2022-07-26T08:48:58.453Z,663.75
2022-07-26T08:49:58.386Z,630.00
2022-07-26T08:52:51.359Z,646.88
2022-07-26T09:05:48.504Z,804.38
2022-07-26T09:06:48.459Z,759.38
2022-07-26T09:07:48.448Z,776.25
2022-07-26T09:08:48.476Z,765.00
2022-07-26T09:09:48.465Z,680.63
2022-07-26T09:10:48.415Z,585.00
2022-07-26T09:18:28.499Z,866.25
2022-07-26T09:19:28.474Z,855.00
2022-07-26T09:20:28.578Z,826.88
2022-07-26T09:21:28.442Z,798.75
2022-07-26T09:22:28.417Z,703.13
2022-07-26T09:35:51.021Z,798.75
2022-07-26T09:36:33.991Z,883.13
2022-07-26T09:37:33.999Z,956.25
2022-07-26T09:38:33.958Z,1023.75
2022-07-26T09:39:34.383Z,1001.25
2022-07-26T09:40:33.994Z,956.25
2022-07-26T09:41:33.916Z,866.25
2022-07-26T09:42:33.902Z,871.88
2022-07-26T09:43:33.889Z,787.50
2022-07-26T09:44:33.871Z,725.63
2022-07-26T09:45:33.865Z,663.75
2022-07-26T09:46:34.162Z,630.00
2022-07-26T09:47:33.874Z,601.88
2022-07-26T09:48:59.393Z,551.25
2022-07-26T09:49:40.426Z,495.00
2022-07-26T10:26:54.050Z,742.50
2022-07-26T10:27:54.027Z,708.75
2022-07-26T11:05:28.681Z,725.63
2022-07-26T11:06:28.665Z,793.13
2022-07-26T11:07:28.653Z,787.50
2022-07-26T11:08:28.633Z,821.25
2022-07-26T11:09:28.609Z,860.63
2022-07-26T11:10:28.599Z,832.50
2022-07-26T11:11:28.589Z,798.75
2022-07-26T11:12:28.566Z,804.38
2022-07-26T11:13:28.571Z,832.50
2022-07-26T11:14:28.550Z,849.38
2022-07-26T11:15:28.519Z,877.50
2022-07-26T11:16:28.600Z,888.75
2022-07-26T11:17:28.511Z,871.88
2022-07-26T11:18:28.587Z,877.50
2022-07-26T11:19:28.473Z,877.50
2022-07-26T11:20:30.007Z,860.63
2022-07-26T11:21:28.443Z,855.00
2022-07-26T11:22:28.436Z,821.25
2022-07-26T11:23:28.433Z,838.13
2022-07-26T11:24:28.400Z,866.25
2022-07-26T11:25:28.391Z,888.75
2022-07-26T11:26:28.372Z,911.25
2022-07-26T11:27:28.357Z,939.38
2022-07-26T11:28:28.372Z,967.50
2022-07-26T11:29:40.566Z,973.13
2022-07-26T11:30:28.345Z,961.88
2022-07-26T11:31:49.611Z,950.63
2022-07-26T11:32:28.387Z,961.88
2022-07-26T11:33:28.293Z,933.75
2022-07-26T11:34:28.278Z,928.13
2022-07-26T11:35:29.729Z,916.88
2022-07-26T11:36:28.250Z,911.25
2022-07-26T11:37:28.228Z,905.63
2022-07-26T11:38:28.237Z,900.00
2022-07-26T11:39:28.209Z,894.38
2022-07-26T11:40:28.198Z,911.25
2022-07-26T11:41:34.259Z,933.75
2022-07-26T11:42:28.176Z,950.63
2022-07-26T11:43:28.173Z,961.88
2022-07-26T11:44:28.149Z,984.38
2022-07-26T11:45:28.129Z,1006.88
2022-07-26T11:46:28.193Z,1012.50
2022-07-26T11:47:28.107Z,1029.38
2022-07-26T11:48:28.154Z,1046.25
2022-07-26T11:49:59.989Z,1051.88
2022-07-26T11:50:28.060Z,1046.25
2022-07-26T11:51:28.055Z,1046.25
2022-07-26T11:52:28.045Z,1035.00
2022-07-26T11:53:28.040Z,1018.13
2022-07-26T11:54:28.019Z,1001.25
2022-07-26T11:55:28.002Z,1001.25
2022-07-26T11:56:28.010Z,1006.88
2022-07-26T11:57:27.976Z,1018.13
2022-07-26T11:58:28.008Z,1018.13
2022-07-26T11:59:27.946Z,1018.13
2022-07-26T12:00:27.943Z,1018.13
2022-07-26T12:01:27.918Z,1012.50
2022-07-26T12:02:27.913Z,1046.25
2022-07-26T12:03:27.903Z,1001.25
2022-07-26T12:04:28.017Z,967.50
2022-07-26T12:05:28.194Z,950.63
2022-07-26T12:06:27.860Z,967.50
2022-07-26T12:07:27.848Z,905.63
2022-07-26T12:08:27.846Z,866.25
2022-07-26T12:09:27.830Z,855.00
2022-07-26T12:10:27.815Z,804.38
2022-07-26T12:11:27.802Z,821.25
2022-07-26T12:12:27.781Z,748.13
2022-07-26T12:13:27.792Z,720.00
2022-07-26T12:14:27.787Z,725.63
2022-07-26T12:15:27.783Z,736.88
2022-07-26T12:16:27.789Z,776.25
2022-07-26T12:17:35.294Z,697.50
2022-07-26T12:18:27.737Z,708.75
2022-07-26T12:19:27.708Z,798.75
2022-07-26T12:20:27.696Z,871.88
2022-07-26T12:21:27.689Z,939.38
2022-07-26T12:22:27.664Z,990.00
2022-07-26T12:23:27.648Z,1018.13
2022-07-26T12:24:27.650Z,978.75
2022-07-26T12:25:27.624Z,793.13
2022-07-26T12:26:27.632Z,714.38
2022-07-26T12:27:27.602Z,635.63
2022-07-26T13:14:12.976Z,691.88
2022-07-26T13:15:12.696Z,759.38
2022-07-26T13:16:12.722Z,821.25
2022-07-26T13:17:12.706Z,883.13
2022-07-26T13:18:12.644Z,950.63
2022-07-26T13:19:12.620Z,1035.00
2022-07-26T13:20:12.622Z,1282.50
2022-07-26T13:21:12.593Z,3791.25
2022-07-26T13:22:12.568Z,3729.38
2022-07-26T13:23:13.138Z,1428.75
2022-07-26T13:24:12.768Z,1355.63
2022-07-26T13:25:12.536Z,3037.50
2022-07-26T13:26:12.526Z,3768.75
2022-07-26T13:27:12.506Z,2520.00
2022-07-26T13:28:12.486Z,3375.00
2022-07-26T13:29:12.464Z,2446.88
2022-07-26T13:30:12.475Z,1591.88
2022-07-26T13:31:12.532Z,1586.25
2022-07-26T13:32:12.431Z,3307.50
2022-07-26T13:33:12.459Z,3026.25
2022-07-26T13:34:12.696Z,3481.88
2022-07-26T13:35:12.403Z,3408.75
2022-07-26T13:36:12.380Z,3431.25
2022-07-26T13:37:12.367Z,3594.38
2022-07-26T13:38:12.355Z,3555.00
2022-07-26T13:39:12.338Z,3380.63
2022-07-26T13:40:12.335Z,3133.13
2022-07-26T13:41:12.305Z,2936.25
2022-07-26T13:42:12.296Z,2846.25
2022-07-26T13:43:12.293Z,2722.50
2022-07-26T13:44:12.641Z,2503.13
2022-07-26T13:45:12.283Z,2368.13
2022-07-26T13:46:12.319Z,2458.13
2022-07-26T13:47:12.242Z,2261.25
2022-07-26T13:48:12.235Z,2053.13
2022-07-26T13:49:12.272Z,2081.25
2022-07-26T13:50:12.228Z,2092.50
2022-07-26T13:51:12.209Z,1991.25
2022-07-26T13:52:16.553Z,1895.63
2022-07-26T13:53:12.178Z,1867.50
2022-07-26T13:54:12.569Z,1243.13
2022-07-26T13:55:12.169Z,2025.00
2022-07-26T13:56:12.144Z,2036.25
2022-07-26T13:57:12.149Z,2036.25
2022-07-26T13:58:12.133Z,2030.63
2022-07-26T13:59:12.115Z,2092.50
2022-07-26T14:00:12.119Z,2137.50
2022-07-26T14:01:12.161Z,2070.00
2022-07-26T14:02:12.214Z,2148.75
2022-07-26T14:03:12.148Z,2126.25
2022-07-26T14:04:13.106Z,2238.75
2022-07-26T14:05:12.091Z,2604.38
2022-07-26T14:06:12.059Z,2610.00
2022-07-26T14:07:12.042Z,2716.88
2022-07-26T14:08:12.030Z,3071.25
2022-07-26T14:09:12.027Z,3436.88
2022-07-26T14:10:12.025Z,3335.63
2022-07-26T14:11:12.016Z,776.25
2022-07-26T14:14:42.836Z,3189.38
2022-07-26T14:15:42.818Z,3054.38
2022-07-26T14:16:42.855Z,3178.13
2022-07-26T14:17:42.789Z,3223.13
2022-07-26T14:18:42.780Z,3133.13
2022-07-26T14:19:42.780Z,2829.38
2022-07-26T14:20:42.777Z,2874.38
2022-07-26T14:21:59.137Z,2615.63
2022-07-26T14:22:42.748Z,2739.38
2022-07-26T14:23:42.738Z,2958.75
2022-07-26T14:24:42.742Z,3127.50
2022-07-26T14:25:42.741Z,3065.63
2022-07-26T14:26:42.737Z,3155.63
2022-07-26T14:27:42.739Z,990.00
2022-07-26T14:28:42.741Z,3375.00
2022-07-26T14:29:42.697Z,3138.75
2022-07-26T14:30:42.701Z,3121.88
2022-07-26T14:31:42.732Z,1186.88
2022-07-26T14:32:42.666Z,3150.00
2022-07-26T14:33:42.653Z,781.88
2022-07-26T14:36:00.312Z,2880.00
2022-07-26T14:37:00.299Z,804.38
2022-07-26T14:38:00.287Z,2986.88
2022-07-26T14:39:00.286Z,3037.50
2022-07-26T14:40:00.273Z,2930.63
2022-07-26T14:41:00.277Z,3161.25
2022-07-26T14:42:00.267Z,3296.25
2022-07-26T14:43:00.247Z,3099.38
2022-07-26T14:44:00.237Z,3116.25
2022-07-26T14:45:00.239Z,2981.25
2022-07-26T14:46:00.291Z,3105.00
2022-07-26T14:47:00.205Z,3268.13
2022-07-26T14:48:00.207Z,3403.13
2022-07-26T14:49:00.222Z,3391.88
2022-07-26T14:50:05.788Z,832.50
2022-07-26T14:51:08.691Z,1603.13
2022-07-26T14:52:00.165Z,3346.88
2022-07-26T14:53:00.159Z,3346.88
2022-07-26T14:54:00.158Z,3178.13
2022-07-26T14:55:00.143Z,1980.00
2022-07-26T14:56:00.155Z,3183.75
2022-07-26T14:57:00.137Z,1816.88
2022-07-26T14:58:00.127Z,810.00
2022-07-26T14:59:00.111Z,1417.50
2022-07-26T15:00:00.140Z,2711.25
2022-07-26T15:01:00.171Z,2745.00
2022-07-26T15:06:04.841Z,1012.50
2022-07-26T15:07:04.822Z,1411.88
2022-07-26T15:08:06.298Z,815.63
2022-07-26T15:12:48.098Z,2739.38
2022-07-26T15:13:48.081Z,3009.38
2022-07-26T15:14:48.066Z,3048.75
2022-07-26T15:15:48.059Z,2278.13
2022-07-26T15:16:48.165Z,2778.75
2022-07-26T15:28:32.623Z,978.75
2022-07-26T15:29:32.590Z,759.38
2022-07-26T16:17:05.784Z,742.50
2022-07-26T16:19:30.014Z,680.63
2022-07-26T16:20:29.996Z,720.00
2022-07-26T16:21:29.988Z,793.13
2022-07-26T16:22:29.987Z,916.88
2022-07-26T16:23:29.963Z,725.63
2022-07-26T16:24:29.946Z,714.38
2022-07-26T16:25:29.921Z,753.75
2022-07-26T16:26:29.904Z,815.63
2022-07-26T16:27:29.914Z,877.50
2022-07-26T16:28:29.888Z,950.63
2022-07-26T16:29:29.865Z,939.38
2022-07-26T16:30:29.847Z,922.50
2022-07-26T16:31:29.909Z,939.38
2022-07-26T16:32:29.835Z,978.75
2022-07-26T16:33:29.805Z,1321.88
2022-07-26T16:34:29.800Z,1681.88
2022-07-26T16:35:29.806Z,1063.13
2022-07-26T16:36:29.773Z,995.63
2022-07-26T16:37:29.763Z,1018.13
2022-07-26T16:38:29.774Z,1023.75
2022-07-26T16:39:29.731Z,1046.25
2022-07-26T16:40:29.722Z,1108.13
2022-07-26T16:41:29.702Z,973.13
2022-07-26T16:42:29.705Z,1378.13
2022-07-26T16:43:29.674Z,1918.13
2022-07-26T16:44:29.667Z,1209.38
2022-07-26T16:45:29.654Z,1968.75
2022-07-26T16:46:29.651Z,1906.88
2022-07-26T16:47:29.647Z,1710.00
2022-07-26T16:48:29.683Z,1485.00
2022-07-26T16:49:29.668Z,1698.75
2022-07-26T16:50:29.595Z,1845.00
2022-07-26T16:51:29.575Z,1310.63
2022-07-26T16:52:29.577Z,1383.75
2022-07-26T16:53:29.641Z,1625.63
2022-07-26T16:54:29.555Z,1563.75
2022-07-26T16:55:29.541Z,1766.25
2022-07-26T16:56:29.520Z,1726.88
2022-07-26T16:57:29.530Z,1738.13
2022-07-26T16:58:29.538Z,1518.75
2022-07-26T16:59:29.546Z,1198.13
2022-07-26T17:00:29.529Z,1248.75
2022-07-26T17:01:29.485Z,967.50
2022-07-26T17:02:29.524Z,1248.75
2022-07-26T17:03:29.454Z,787.50
2022-07-26T17:04:29.755Z,916.88
2022-07-26T17:08:10.504Z,1040.63
2022-07-26T17:09:15.396Z,1220.63
2022-07-26T17:10:10.520Z,1254.38
2022-07-26T17:11:10.440Z,1237.50
2022-07-26T17:12:58.637Z,1215.00
